Time;durP1;ratioP1;P1;durP2;ratioP2;P2;SDS_P1;SDS_P2;PMS_P1;PMS_P2;Temp;Humidity;BMP_temperature;BMP_pressure;BME280_temperature;BME280_humidity;BME280_pressure;Samples;Min_cycle;Max_cycle;Signal;HPM_P1;HPM_P2
2023/04/07 04:00:38;;;;;;;3.83;3.30;;;8.50;79.80;;;;;;5999696;23;21273;-72
2023/04/07 04:03:05;;;;;;;3.77;3.23;;;8.50;79.80;;;;;;4996965;28;20946;-72
2023/04/07 04:05:32;;;;;;;4.87;4.37;;;8.50;79.90;;;;;;4996729;28;20449;-73
2023/04/07 04:07:58;;;;;;;4.30;3.90;;;8.60;79.90;;;;;;4996584;28;20445;-73
2023/04/07 04:10:26;;;;;;;4.20;3.30;;;8.50;79.80;;;;;;4996553;28;20445;-72
2023/04/07 04:12:52;;;;;;;5.00;3.87;;;8.30;80.40;;;;;;4996436;28;20540;-73
2023/04/07 04:15:19;;;;;;;3.93;3.53;;;8.40;80.10;;;;;;4997150;28;20504;-73
2023/04/07 04:17:47;;;;;;;4.20;3.63;;;8.50;79.70;;;;;;4996574;28;20845;-73
2023/04/07 04:20:14;;;;;;;3.23;2.93;;;8.40;79.70;;;;;;4996164;28;20475;-72
2023/04/07 04:22:40;;;;;;;4.23;3.80;;;8.40;80.00;;;;;;4996331;28;20560;-73
2023/04/07 04:25:08;;;;;;;4.07;3.10;;;8.50;79.80;;;;;;4996288;28;20445;-72
2023/04/07 04:27:34;;;;;;;4.93;3.60;;;8.60;79.80;;;;;;4995997;28;20938;-73
2023/04/07 04:30:02;;;;;;;3.77;3.40;;;8.80;79.50;;;;;;4996235;28;20460;-73
2023/04/07 04:32:29;;;;;;;4.47;3.37;;;8.80;78.90;;;;;;4996070;28;20564;-73
2023/04/07 04:34:56;;;;;;;3.80;3.20;;;8.90;78.80;;;;;;4996063;28;20489;-73
2023/04/07 04:37:23;;;;;;;3.90;3.43;;;9.00;78.60;;;;;;4996222;28;20535;-73
2023/04/07 04:39:50;;;;;;;4.90;3.17;;;9.20;78.00;;;;;;4995767;28;20943;-72
2023/04/07 04:42:17;;;;;;;4.30;3.40;;;9.20;77.70;;;;;;4995968;28;20465;-73
2023/04/07 04:44:43;;;;;;;3.70;3.20;;;9.20;77.70;;;;;;4995915;28;20454;-73
2023/04/07 04:47:10;;;;;;;4.47;4.00;;;9.30;77.40;;;;;;4996024;28;20453;-73
2023/04/07 04:49:37;;;;;;;4.80;4.00;;;9.40;77.30;;;;;;4995985;28;20454;-71
2023/04/07 04:52:05;;;;;;;5.77;4.40;;;9.40;77.00;;;;;;4995506;28;20982;-73
2023/04/07 04:54:32;;;;;;;3.70;3.40;;;9.50;77.00;;;;;;4995776;28;20483;-73
2023/04/07 04:56:58;;;;;;;4.93;4.43;;;9.40;77.30;;;;;;4995845;28;20495;-73
2023/04/07 04:59:25;;;;;;;4.40;4.00;;;9.50;77.40;;;;;;4995671;28;20524;-73
2023/04/07 05:01:52;;;;;;;4.60;4.20;;;9.50;77.40;;;;;;4995390;28;20481;-73
2023/04/07 05:04:19;;;;;;;5.43;3.83;;;9.50;77.30;;;;;;4995626;28;20446;-73
2023/04/07 05:06:45;;;;;;;3.90;3.30;;;9.60;77.10;;;;;;4995618;28;20445;-73
2023/04/07 05:09:13;;;;;;;3.97;3.53;;;9.60;76.90;;;;;;4995579;28;20453;-73
2023/04/07 05:11:41;;;;;;;4.20;3.77;;;9.60;76.60;;;;;;4995399;28;20471;-73
2023/04/07 05:14:07;;;;;;;4.70;3.20;;;9.70;76.80;;;;;;4995348;28;20485;-73
2023/04/07 05:16:34;;;;;;;5.03;4.53;;;9.70;76.60;;;;;;4995373;28;20500;-73
2023/04/07 05:19:01;;;;;;;8.70;7.90;;;9.70;76.70;;;;;;4994818;28;20503;-72
2023/04/07 05:21:28;;;;;;;3.60;3.30;;;9.70;76.50;;;;;;4995256;28;20496;-73
2023/04/07 05:23:55;;;;;;;4.27;3.10;;;9.70;76.40;;;;;;4995212;28;20507;-73
2023/04/07 05:26:23;;;;;;;4.13;3.10;;;9.70;76.80;;;;;;4994990;28;20947;-73
2023/04/07 05:28:49;;;;;;;3.83;3.43;;;9.70;77.10;;;;;;4994843;28;20938;-74
2023/04/07 05:31:16;;;;;;;4.00;3.60;;;9.70;77.20;;;;;;4995108;28;20477;-73
2023/04/07 05:33:43;;;;;;;5.60;4.47;;;9.70;77.20;;;;;;4995076;28;20473;-73
2023/04/07 05:36:09;;;;;;;4.03;3.63;;;9.70;77.00;;;;;;4995080;28;20445;-74
2023/04/07 05:38:36;;;;;;;3.50;3.20;;;9.80;77.10;;;;;;4995026;28;20449;-74
2023/04/07 05:41:03;;;;;;;4.60;3.50;;;9.80;77.00;;;;;;4994929;28;20496;-74
2023/04/07 05:43:31;;;;;;;3.70;3.07;;;9.80;77.00;;;;;;4994915;28;20450;-74
2023/04/07 05:45:57;;;;;;;4.40;3.63;;;9.80;76.90;;;;;;4994862;28;20504;-74
2023/04/07 05:48:24;;;;;;;4.13;3.73;;;9.90;76.80;;;;;;4994784;28;20445;-73
2023/04/07 05:50:51;;;;;;;3.70;3.27;;;9.80;76.70;;;;;;4994409;28;20892;-74
2023/04/07 05:53:17;;;;;;;4.20;3.80;;;9.50;77.50;;;;;;4994778;28;20458;-74
2023/04/07 05:55:44;;;;;;;4.00;3.60;;;9.40;77.90;;;;;;4994846;28;20503;-74
2023/04/07 05:58:11;;;;;;;4.30;3.83;;;9.40;78.50;;;;;;4994775;28;20543;-73
2023/04/07 06:00:40;;;;;;;4.73;3.70;;;9.40;79.00;;;;;;4994397;28;20453;-73
2023/04/07 06:03:07;;;;;;;3.90;3.50;;;9.30;79.40;;;;;;4994656;28;20848;-73
2023/04/07 06:05:34;;;;;;;4.10;3.70;;;9.30;79.70;;;;;;4994179;28;20943;-74
2023/04/07 06:08:00;;;;;;;4.27;3.70;;;9.50;79.40;;;;;;4994479;28;20553;-73
2023/04/07 06:10:27;;;;;;;4.23;3.83;;;9.50;79.20;;;;;;4994283;28;20450;-73
2023/04/07 06:12:54;;;;;;;5.33;4.23;;;9.60;78.70;;;;;;4994069;28;20939;-73
2023/04/07 06:15:21;;;;;;;4.47;3.50;;;9.80;77.50;;;;;;4994196;28;20541;-73
2023/04/07 06:17:49;;;;;;;4.23;3.83;;;9.70;76.10;;;;;;4994313;28;20449;-73
2023/04/07 06:20:16;;;;;;;4.20;3.80;;;9.70;75.90;;;;;;4994220;28;20513;-73
2023/04/07 06:22:43;;;;;;;4.40;4.00;;;9.80;76.60;;;;;;4994188;28;20476;-74
2023/04/07 06:25:10;;;;;;;3.60;3.17;;;9.90;75.80;;;;;;4994035;28;20537;-73
2023/04/07 06:27:36;;;;;;;3.83;3.30;;;9.90;76.50;;;;;;4994161;28;20451;-73
2023/04/07 06:30:03;;;;;;;4.27;3.87;;;9.70;78.60;;;;;;4993537;28;20485;-73
2023/04/07 06:32:30;;;;;;;3.93;3.47;;;9.60;79.10;;;;;;4993388;28;20479;-73
2023/04/07 06:34:58;;;;;;;6.10;3.90;;;9.50;79.10;;;;;;4993671;28;20531;-73
2023/04/07 06:37:25;;;;;;;5.37;4.87;;;9.40;79.60;;;;;;4994075;28;20441;-73
2023/04/07 06:39:51;;;;;;;4.10;3.70;;;9.50;79.50;;;;;;4993974;28;20853;-73
2023/04/07 06:42:18;;;;;;;4.90;4.10;;;9.60;79.20;;;;;;4993871;28;20461;-72
2023/04/07 06:44:45;;;;;;;4.87;4.37;;;9.60;77.60;;;;;;4993915;28;20449;-73
2023/04/07 06:47:11;;;;;;;4.03;3.60;;;9.50;78.30;;;;;;4993866;28;20445;-72
2023/04/07 06:49:38;;;;;;;4.70;3.90;;;9.30;79.60;;;;;;4993798;28;20449;-73
2023/04/07 06:52:06;;;;;;;4.73;4.33;;;9.00;80.20;;;;;;4993718;28;20465;-72
2023/04/07 06:54:33;;;;;;;6.03;4.90;;;8.70;80.30;;;;;;4993464;28;21001;-73
2023/04/07 06:57:00;;;;;;;3.90;3.50;;;8.90;80.50;;;;;;4993849;28;20866;-72
2023/04/07 06:59:27;;;;;;;5.20;4.70;;;9.10;79.80;;;;;;4993671;28;20548;-73
2023/04/07 07:01:53;;;;;;;4.10;3.70;;;9.20;79.00;;;;;;4993302;28;20547;-72
2023/04/07 07:04:20;;;;;;;4.73;3.67;;;9.20;78.40;;;;;;4993691;28;20512;-72
2023/04/07 07:06:47;;;;;;;4.00;3.40;;;9.30;78.00;;;;;;4993723;28;20445;-72
2023/04/07 07:09:15;;;;;;;4.57;4.07;;;9.30;78.20;;;;;;4993724;28;20453;-73
2023/04/07 07:11:41;;;;;;;4.40;3.90;;;9.50;78.10;;;;;;4993594;28;20531;-72
2023/04/07 07:14:08;;;;;;;4.70;3.80;;;9.80;77.80;;;;;;4993539;28;20539;-73
2023/04/07 07:16:36;;;;;;;4.10;3.70;;;9.80;76.00;;;;;;4993665;28;20450;-73
2023/04/07 07:19:02;;;;;;;3.73;3.37;;;10.00;75.60;;;;;;4993350;28;21049;-73
2023/04/07 07:21:30;;;;;;;4.20;3.67;;;10.00;74.50;;;;;;4993492;28;20520;-74
2023/04/07 07:23:56;;;;;;;4.53;4.10;;;9.90;75.40;;;;;;4993617;28;20449;-74
2023/04/07 07:26:25;;;;;;;5.07;4.10;;;9.90;75.60;;;;;;4993524;28;20445;-73
2023/04/07 07:28:51;;;;;;;4.33;3.90;;;10.00;76.10;;;;;;4993375;28;20541;-74
2023/04/07 07:31:18;;;;;;;5.03;4.33;;;10.10;76.10;;;;;;4993310;28;20469;-73
2023/04/07 07:33:47;;;;;;;3.67;3.27;;;10.20;75.40;;;;;;4993397;28;20940;-73
2023/04/07 07:36:14;;;;;;;4.07;3.47;;;10.10;75.40;;;;;;4993467;28;20449;-73
2023/04/07 07:38:40;;;;;;;3.57;3.27;;;10.00;75.30;;;;;;4993159;28;20947;-72
2023/04/07 07:41:07;;;;;;;3.90;3.50;;;9.70;76.10;;;;;;4993271;28;20840;-73
2023/04/07 07:43:36;;;;;;;4.53;4.13;;;9.60;77.20;;;;;;4996753;28;20500;-73
2023/04/07 07:46:03;;;;;;;4.80;4.40;;;9.90;76.30;;;;;;4997105;28;20509;-73
2023/04/07 07:48:29;;;;;;;4.30;3.90;;;9.90;76.00;;;;;;4997014;28;20453;-72
2023/04/07 07:50:56;;;;;;;4.33;3.87;;;10.00;76.60;;;;;;4996606;28;20990;-73
2023/04/07 07:53:23;;;;;;;5.73;3.57;;;10.00;75.50;;;;;;4996997;28;20528;-72
2023/04/07 07:55:50;;;;;;;3.77;3.40;;;10.00;76.20;;;;;;4996859;28;20830;-72
2023/04/07 07:58:17;;;;;;;4.67;3.73;;;10.10;75.50;;;;;;4996537;28;20453;-72
2023/04/07 08:00:45;;;;;;;3.70;3.27;;;10.20;75.00;;;;;;4996587;28;20472;-73
2023/04/07 08:03:12;;;;;;;4.50;3.13;;;10.40;75.30;;;;;;5003097;28;20434;-72
2023/04/07 08:05:38;;;;;;;3.60;2.80;;;10.70;75.60;;;;;;5017859;28;20481;-71
2023/04/07 08:08:05;;;;;;;3.73;3.17;;;10.70;75.20;;;;;;5002639;28;20511;-73
2023/04/07 08:10:32;;;;;;;3.83;3.47;;;10.70;75.40;;;;;;5002044;28;20457;-73
2023/04/07 08:12:58;;;;;;;5.03;3.40;;;10.50;75.20;;;;;;4997354;28;20860;-73
2023/04/07 08:15:25;;;;;;;3.70;3.40;;;10.50;76.00;;;;;;5004267;28;20744;-73
2023/04/07 08:17:53;;;;;;;3.90;3.47;;;10.80;75.50;;;;;;4996818;28;20476;-73
2023/04/07 08:20:20;;;;;;;4.07;3.63;;;11.00;75.40;;;;;;4996845;28;20449;-73
2023/04/07 08:22:46;;;;;;;2.80;2.23;;;11.70;74.40;;;;;;4996580;28;20500;-73
2023/04/07 08:25:13;;;;;;;3.47;2.83;;;12.20;70.70;;;;;;4997352;28;20445;-73
2023/04/07 08:27:40;;;;;;;2.73;2.20;;;12.40;69.30;;;;;;4997001;28;20963;-73
2023/04/07 08:30:07;;;;;;;3.23;2.27;;;12.90;68.40;;;;;;4997392;28;20449;-73
2023/04/07 08:32:36;;;;;;;2.83;2.30;;;13.50;66.20;;;;;;4997224;28;20474;-74
2023/04/07 08:35:04;;;;;;;3.27;2.77;;;13.80;66.50;;;;;;4996753;28;20920;-74
2023/04/07 08:37:32;;;;;;;2.50;2.13;;;14.30;66.00;;;;;;4996997;28;20449;-74
2023/04/07 08:39:59;;;;;;;3.00;2.17;;;14.50;64.20;;;;;;4996555;28;20457;-73
2023/04/07 08:42:29;;;;;;;2.70;2.30;;;14.40;64.00;;;;;;4996093;28;20472;-74
2023/04/07 08:44:57;;;;;;;3.20;2.67;;;14.30;64.80;;;;;;4996841;28;20441;-74
2023/04/07 08:47:26;;;;;;;4.40;3.93;;;14.00;65.20;;;;;;4996194;28;20504;-73
2023/04/07 08:49:53;;;;;;;3.50;2.73;;;13.90;66.80;;;;;;4996333;28;20481;-74
2023/04/07 08:52:23;;;;;;;5.00;2.50;;;14.10;67.40;;;;;;4996487;28;20476;-73
2023/04/07 08:54:52;;;;;;;3.00;2.70;;;13.90;65.90;;;;;;4995275;28;20519;-74
2023/04/07 08:57:18;;;;;;;3.23;2.87;;;13.70;65.50;;;;;;4996223;28;20552;-73
2023/04/07 08:59:47;;;;;;;3.10;2.80;;;13.60;65.90;;;;;;4995907;28;20449;-74
2023/04/07 09:02:15;;;;;;;3.00;2.50;;;13.70;67.50;;;;;;4995761;28;20559;-73
2023/04/07 09:04:43;;;;;;;3.03;2.57;;;13.80;67.70;;;;;;4995630;28;20965;-73
2023/04/07 09:07:10;;;;;;;2.90;2.60;;;13.90;68.00;;;;;;4996226;28;20832;-72
2023/04/07 09:09:38;;;;;;;4.43;3.03;;;13.70;66.50;;;;;;4995777;28;20476;-74
2023/04/07 09:12:05;;;;;;;3.03;2.73;;;13.40;66.60;;;;;;4995654;28;20507;-72
2023/04/07 09:14:32;;;;;;;3.40;2.70;;;13.50;66.90;;;;;;4996063;28;20516;-72
2023/04/07 09:16:59;;;;;;;3.80;3.20;;;13.30;67.20;;;;;;4995676;28;20454;-73
2023/04/07 09:19:27;;;;;;;3.07;2.47;;;13.20;67.70;;;;;;4995249;28;21009;-74
2023/04/07 09:21:54;;;;;;;3.27;2.77;;;13.50;67.50;;;;;;4995250;28;21009;-74
2023/04/07 09:24:22;;;;;;;5.20;3.20;;;13.30;67.40;;;;;;4995397;28;20454;-74
2023/04/07 09:26:50;;;;;;;3.10;2.73;;;12.90;69.00;;;;;;4995562;28;20449;-74
2023/04/07 09:29:20;;;;;;;3.90;2.83;;;12.60;69.30;;;;;;4995034;28;20947;-73
2023/04/07 09:31:50;;;;;;;3.70;2.90;;;12.50;70.00;;;;;;4995403;28;20990;-73
2023/04/07 09:34:25;;;;;;;4.07;3.43;;;12.70;68.40;;;;;;4995571;28;20896;-73
2023/04/07 09:36:52;;;;;;;2.77;2.40;;;12.90;68.60;;;;;;4995454;28;20538;-73
2023/04/07 09:39:19;;;;;;;3.23;2.37;;;13.10;68.70;;;;;;4995515;28;20457;-74
2023/04/07 09:41:46;;;;;;;4.90;2.87;;;13.10;67.40;;;;;;4995212;28;20822;-74
2023/04/07 09:44:14;;;;;;;4.10;2.70;;;12.90;68.30;;;;;;4995244;28;20457;-74
2023/04/07 09:46:49;;;;;;;3.00;2.63;;;12.90;68.80;;;;;;4994974;28;20943;-74
2023/04/07 09:49:16;;;;;;;3.20;2.60;;;13.40;69.30;;;;;;4994811;28;20788;-74
2023/04/07 09:51:53;;;;;;;3.10;2.67;;;13.80;67.50;;;;;;4994960;28;20600;-74
2023/04/07 09:54:33;;;;;;;3.80;2.13;;;14.00;67.40;;;;;;4995620;28;20429;-74
2023/04/07 09:57:01;;;;;;;2.90;2.00;;;14.30;63.00;;;;;;4995226;28;20468;-73
2023/04/07 09:59:30;;;;;;;3.40;2.60;;;14.30;63.70;;;;;;4995492;28;20453;-74
2023/04/07 10:01:57;;;;;;;2.90;2.07;;;14.30;63.70;;;;;;4994505;28;20842;-74
2023/04/07 10:04:25;;;;;;;2.60;2.00;;;14.60;63.40;;;;;;4994717;28;20449;-74
2023/04/07 10:06:53;;;;;;;3.20;2.30;;;14.60;61.60;;;;;;4994720;28;20938;-75
2023/04/07 10:09:20;;;;;;;3.00;2.00;;;14.20;62.10;;;;;;4994545;28;20456;-74
2023/04/07 10:11:48;;;;;;;2.67;2.10;;;14.10;63.00;;;;;;4994159;28;20998;-74
2023/04/07 10:14:16;;;;;;;2.90;2.30;;;14.30;63.70;;;;;;4994287;28;20446;-74
2023/04/07 10:16:44;;;;;;;2.90;1.97;;;14.30;66.10;;;;;;5016185;23;21070;-73
2023/04/07 10:19:12;;;;;;;2.97;2.30;;;14.30;63.80;;;;;;4993939;28;20842;-72
2023/04/07 10:21:41;;;;;;;3.20;2.30;;;14.30;63.00;;;;;;4994236;28;20532;-72
2023/04/07 10:24:21;;;;;;;3.37;2.43;;;14.00;63.30;;;;;;4994087;28;20540;-74
2023/04/07 10:26:52;;;;;;;3.63;1.90;;;14.10;62.60;;;;;;4993804;28;20879;-72
2023/04/07 10:29:20;;;;;;;3.60;2.30;;;14.40;62.20;;;;;;4994588;28;20425;-74
2023/04/07 10:31:49;;;;;;;3.67;1.77;;;14.40;62.30;;;;;;4994084;28;20496;-75
2023/04/07 10:34:15;;;;;;;2.83;1.43;;;14.30;63.30;;;;;;4993747;28;20811;-72
2023/04/07 10:37:12;;;;;;;3.60;2.50;;;14.10;66.50;;;;;;4993897;28;20888;-73
2023/04/07 10:39:38;;;;;;;4.93;2.17;;;13.70;68.30;;;;;;4993838;28;20970;-73
2023/04/07 10:42:05;;;;;;;4.10;3.10;;;13.40;70.00;;;;;;4994091;28;20452;-72
2023/04/07 10:44:50;;;;;;;3.30;2.40;;;13.20;70.60;;;;;;4994027;28;20495;-73
2023/04/07 10:47:18;;;;;;;3.53;2.43;;;12.80;72.40;;;;;;4993751;28;20903;-72
2023/04/07 10:50:16;;;;;;;3.43;1.73;;;12.70;73.40;;;;;;4993733;28;20481;-72
2023/04/07 10:52:43;;;;;;;2.40;1.57;;;12.60;74.30;;;;;;4994089;28;20468;-73
2023/04/07 10:55:30;;;;;;;3.20;1.80;;;12.60;74.10;;;;;;4994591;28;20500;-73
2023/04/07 10:58:30;;;;;;;3.40;1.97;;;12.20;74.00;;;;;;4994120;28;20957;-73
2023/04/07 11:01:20;;;;;;;3.17;1.60;;;11.40;75.50;;;;;;4993951;28;20438;-72
2023/04/07 11:03:56;;;;;;;2.97;1.30;;;10.80;75.90;;;;;;4993670;28;20977;-72
2023/04/07 11:06:25;;;;;;;3.90;1.70;;;10.90;78.50;;;;;;4993865;28;20520;-72
2023/04/07 11:08:51;;;;;;;2.23;1.33;;;11.00;78.30;;;;;;4993848;28;20445;-72
2023/04/07 11:11:36;;;;;;;2.50;1.20;;;10.90;78.70;;;;;;4993799;28;20445;-72
2023/04/07 11:14:02;;;;;;;2.50;1.27;;;10.60;78.90;;;;;;4993781;28;20448;-72
2023/04/07 11:16:36;;;;;;;2.40;1.37;;;10.30;78.90;;;;;;4993434;28;20492;-72
2023/04/07 11:19:04;;;;;;;4.20;1.43;;;10.40;79.50;;;;;;4997758;28;20516;-72
2023/04/07 11:21:31;;;;;;;3.10;1.30;;;10.70;79.60;;;;;;4997612;28;20870;-73
2023/04/07 11:23:58;;;;;;;2.50;1.47;;;10.80;77.80;;;;;;4997598;28;20453;-73
2023/04/07 11:26:25;;;;;;;4.07;1.70;;;11.00;78.20;;;;;;4997487;28;20551;-73
2023/04/07 11:28:53;;;;;;;2.87;1.73;;;11.20;78.40;;;;;;4997185;28;20456;-74
2023/04/07 11:31:23;;;;;;;2.70;2.00;;;11.50;78.90;;;;;;4997507;28;20456;-73
2023/04/07 11:33:53;;;;;;;3.07;1.20;;;11.60;78.90;;;;;;4997422;28;20452;-74
2023/04/07 11:36:29;;;;;;;3.23;1.27;;;11.80;79.40;;;;;;4996930;28;21084;-73
2023/04/07 11:38:57;;;;;;;2.37;1.30;;;11.70;79.40;;;;;;4997371;28;20544;-73
2023/04/07 11:41:25;;;;;;;4.03;1.30;;;11.70;80.20;;;;;;4997294;28;20586;-73
2023/04/07 11:44:04;;;;;;;2.50;1.10;;;11.70;79.60;;;;;;4997376;28;20457;-74
2023/04/07 11:46:31;;;;;;;2.27;1.30;;;11.70;79.40;;;;;;4996839;28;20559;-73
2023/04/07 11:49:09;;;;;;;2.40;1.40;;;11.70;79.40;;;;;;4997175;28;20453;-73
2023/04/07 11:51:37;;;;;;;4.40;2.20;;;11.60;80.00;;;;;;4997019;28;20441;-73
2023/04/07 11:54:03;;;;;;;3.87;1.83;;;11.60;80.60;;;;;;4997022;28;20508;-73
2023/04/07 11:56:40;;;;;;;2.90;1.87;;;11.60;80.60;;;;;;4996876;28;20567;-73
2023/04/07 11:59:07;;;;;;;3.33;1.57;;;11.70;80.80;;;;;;4996977;28;20456;-73
2023/04/07 12:01:40;;;;;;;3.00;1.80;;;11.80;81.20;;;;;;4996951;28;20445;-73
2023/04/07 12:04:07;;;;;;;4.00;1.70;;;11.90;80.80;;;;;;4996917;28;20471;-73
2023/04/07 12:06:37;;;;;;;3.10;2.23;;;12.00;81.00;;;;;;4996678;28;20473;-73
2023/04/07 12:09:05;;;;;;;3.77;3.33;;;12.10;81.20;;;;;;4996803;28;20529;-72
2023/04/07 12:11:32;;;;;;;3.10;1.97;;;12.10;81.30;;;;;;4996688;28;20446;-73
2023/04/07 12:14:00;;;;;;;3.07;2.13;;;12.10;81.20;;;;;;4996685;28;20449;-74
2023/04/07 12:16:26;;;;;;;2.83;2.17;;;12.10;80.90;;;;;;4996160;28;20493;-73
2023/04/07 12:18:54;;;;;;;5.17;2.10;;;12.10;80.00;;;;;;4996572;28;20456;-73
2023/04/07 12:21:20;;;;;;;3.20;1.90;;;12.10;79.70;;;;;;4996552;28;20452;-73
2023/04/07 12:23:47;;;;;;;3.23;2.17;;;12.20;80.30;;;;;;4996502;28;20450;-74
2023/04/07 12:26:15;;;;;;;2.80;2.20;;;12.30;79.80;;;;;;4996413;28;20498;-73
2023/04/07 12:28:42;;;;;;;2.87;2.10;;;12.30;79.60;;;;;;4995132;28;20456;-73
2023/04/07 12:31:09;;;;;;;3.03;1.63;;;11.80;78.30;;;;;;4996371;28;20453;-73
2023/04/07 12:33:35;;;;;;;3.67;2.00;;;11.80;79.50;;;;;;4996317;28;20457;-73
2023/04/07 12:36:02;;;;;;;3.27;2.10;;;11.90;79.20;;;;;;4996188;28;20485;-73
2023/04/07 12:38:28;;;;;;;3.40;2.40;;;12.00;79.50;;;;;;4995937;28;20997;-73
2023/04/07 12:41:02;;;;;;;3.17;2.50;;;12.00;79.80;;;;;;4996194;28;20450;-73
2023/04/07 12:43:30;;;;;;;3.53;3.10;;;12.20;80.00;;;;;;5000711;28;20908;-72
2023/04/07 12:45:57;;;;;;;4.87;3.30;;;12.30;80.20;;;;;;4999343;28;20480;-73
2023/04/07 12:48:25;;;;;;;4.77;3.10;;;12.30;79.50;;;;;;4996132;28;20476;-73
2023/04/07 12:50:52;;;;;;;4.17;3.77;;;12.40;79.60;;;;;;4996064;28;20464;-73
2023/04/07 12:53:18;;;;;;;2.70;2.00;;;12.50;79.40;;;;;;4995706;28;20943;-73
2023/04/07 12:55:47;;;;;;;3.27;2.23;;;12.50;78.80;;;;;;4995462;28;20861;-72
2023/04/07 12:58:13;;;;;;;2.90;2.40;;;12.50;79.20;;;;;;4995882;28;20456;-73
2023/04/07 13:00:41;;;;;;;4.20;2.63;;;12.60;78.60;;;;;;4995812;28;20504;-73
2023/04/07 13:03:08;;;;;;;5.63;2.40;;;12.60;78.90;;;;;;4995817;28;20505;-73
2023/04/07 13:05:35;;;;;;;2.70;2.23;;;12.70;79.40;;;;;;4995365;28;20982;-73
2023/04/07 13:08:02;;;;;;;3.53;3.13;;;12.60;79.50;;;;;;4995703;28;20449;-73
2023/04/07 13:10:28;;;;;;;4.17;3.43;;;12.70;79.30;;;;;;4995638;28;20453;-73
2023/04/07 13:12:55;;;;;;;3.17;2.47;;;12.70;78.50;;;;;;4995617;28;20492;-73
2023/04/07 13:15:22;;;;;;;3.40;2.70;;;12.80;78.50;;;;;;4995050;28;21028;-73
2023/04/07 13:17:50;;;;;;;3.43;2.67;;;12.80;77.60;;;;;;4995438;28;20480;-73
2023/04/07 13:20:17;;;;;;;4.10;2.83;;;12.80;77.50;;;;;;4995099;28;20871;-73
2023/04/07 13:22:43;;;;;;;3.70;3.00;;;12.80;78.10;;;;;;4995131;28;20938;-72
2023/04/07 13:25:10;;;;;;;3.53;3.17;;;12.80;78.40;;;;;;4995304;28;20524;-73
2023/04/07 13:27:37;;;;;;;3.60;2.73;;;12.70;78.10;;;;;;4995307;28;20450;-73
2023/04/07 13:30:04;;;;;;;3.70;2.83;;;12.80;77.60;;;;;;4995251;28;20445;-73
2023/04/07 13:32:31;;;;;;;3.10;2.23;;;12.80;76.90;;;;;;4994939;28;20949;-73
2023/04/07 13:34:58;;;;;;;3.33;2.13;;;12.80;77.10;;;;;;4995137;28;20469;-73
2023/04/07 13:37:26;;;;;;;3.20;2.40;;;12.90;77.00;;;;;;4995008;28;20481;-73
2023/04/07 13:39:52;;;;;;;3.53;2.80;;;12.90;76.90;;;;;;4994678;28;20817;-74
2023/04/07 13:42:19;;;;;;;3.60;2.63;;;12.90;77.50;;;;;;4995003;28;20453;-73
2023/04/07 13:44:47;;;;;;;3.27;2.13;;;12.90;78.00;;;;;;4994836;28;20880;-74
2023/04/07 13:47:18;;;;;;;3.60;3.10;;;12.90;78.20;;;;;;4995231;28;20531;-76
2023/04/07 13:49:45;;;;;;;3.10;2.43;;;13.00;79.00;;;;;;4995698;28;20441;-78
2023/04/07 13:52:13;;;;;;;3.90;2.90;;;13.00;79.40;;;;;;4994895;28;20519;-76
2023/04/07 13:54:40;;;;;;;3.57;2.20;;;12.90;79.40;;;;;;4994398;28;20874;-76
2023/04/07 13:57:07;;;;;;;3.50;2.13;;;12.90;80.10;;;;;;4995049;28;20536;-75
2023/04/07 13:59:33;;;;;;;3.80;2.70;;;12.90;80.10;;;;;;4994665;28;20457;-73
2023/04/07 14:02:00;;;;;;;3.50;2.33;;;12.90;80.40;;;;;;4994426;28;20947;-73
2023/04/07 14:04:27;;;;;;;2.73;1.77;;;13.00;80.40;;;;;;4994629;28;20449;-75
2023/04/07 14:06:54;;;;;;;3.30;2.50;;;12.90;80.00;;;;;;4994520;28;20465;-75
2023/04/07 14:09:22;;;;;;;2.90;2.00;;;13.00;78.90;;;;;;4995118;28;20823;-77
2023/04/07 14:11:49;;;;;;;4.10;2.20;;;13.00;78.60;;;;;;4994598;28;20460;-76
2023/04/07 14:14:16;;;;;;;4.20;2.23;;;13.10;78.70;;;;;;4994503;28;20449;-75
2023/04/07 14:16:43;;;;;;;3.03;1.90;;;13.20;78.70;;;;;;4994386;28;20492;-76
2023/04/07 14:19:11;;;;;;;4.53;2.30;;;13.30;78.00;;;;;;4994073;28;20954;-75
2023/04/07 14:21:37;;;;;;;3.70;1.53;;;13.30;77.10;;;;;;4994438;28;20519;-75
2023/04/07 14:24:04;;;;;;;2.70;1.90;;;13.40;76.20;;;;;;4994287;28;20524;-75
2023/04/07 14:26:32;;;;;;;2.70;1.50;;;13.40;75.90;;;;;;4994227;28;20461;-75
2023/04/07 14:28:59;;;;;;;2.57;1.80;;;13.40;76.10;;;;;;4994241;28;20449;-76
2023/04/07 14:31:25;;;;;;;3.43;1.90;;;13.50;76.60;;;;;;4994235;28;20504;-75
2023/04/07 14:33:52;;;;;;;3.70;1.80;;;13.40;75.00;;;;;;4994208;28;20453;-75
2023/04/07 14:36:18;;;;;;;3.20;2.03;;;13.50;75.50;;;;;;4994028;28;20497;-75
2023/04/07 14:38:45;;;;;;;2.90;1.70;;;13.50;75.20;;;;;;4994101;28;20453;-76
2023/04/07 14:41:12;;;;;;;3.33;2.10;;;13.50;76.10;;;;;;4994088;28;20457;-75
2023/04/07 14:43:40;;;;;;;4.10;2.37;;;13.50;76.10;;;;;;4994057;28;20496;-75
2023/04/07 14:46:06;;;;;;;3.23;2.20;;;13.40;75.80;;;;;;4994195;28;20515;-75
2023/04/07 14:48:33;;;;;;;3.00;2.37;;;13.40;75.20;;;;;;4994078;28;20452;-75
2023/04/07 14:51:00;;;;;;;3.30;2.10;;;13.30;76.20;;;;;;4993527;28;20461;-75
2023/04/07 14:53:27;;;;;;;3.80;1.90;;;13.30;76.50;;;;;;4993597;28;20540;-73
2023/04/07 14:55:54;;;;;;;2.80;2.10;;;13.30;77.10;;;;;;4993597;28;21010;-74
2023/04/07 14:58:21;;;;;;;4.07;2.57;;;13.30;76.30;;;;;;4994325;28;21053;-75
2023/04/07 15:00:49;;;;;;;3.63;2.10;;;13.30;77.10;;;;;;4994471;28;20460;-75
2023/04/07 15:03:15;;;;;;;3.43;2.20;;;13.40;77.30;;;;;;4993929;28;20454;-76
2023/04/07 15:05:42;;;;;;;3.60;2.10;;;13.40;78.20;;;;;;4993802;28;20499;-75
2023/04/07 15:08:09;;;;;;;6.63;2.10;;;13.40;77.90;;;;;;4994825;28;20456;-75
2023/04/07 15:10:38;;;;;;;3.23;2.10;;;13.50;78.10;;;;;;4993821;28;20457;-74
2023/04/07 15:13:04;;;;;;;3.00;2.40;;;13.50;77.30;;;;;;4993793;28;20456;-74
2023/04/07 15:15:31;;;;;;;2.90;2.40;;;13.60;77.70;;;;;;4993268;28;21001;-73
2023/04/07 15:17:59;;;;;;;3.43;2.33;;;13.70;78.00;;;;;;4993350;28;20905;-73
2023/04/07 15:20:26;;;;;;;3.57;2.20;;;13.60;77.60;;;;;;4993783;28;20866;-73
2023/04/07 15:22:53;;;;;;;4.60;2.30;;;13.60;76.70;;;;;;4993756;28;20446;-73
2023/04/07 15:25:21;;;;;;;3.10;2.30;;;13.60;76.90;;;;;;4993599;28;20476;-74
2023/04/07 15:27:48;;;;;;;3.00;2.17;;;13.60;77.20;;;;;;4993624;28;20449;-76
2023/04/07 15:30:15;;;;;;;3.13;2.50;;;13.50;78.20;;;;;;4993598;28;20455;-76
2023/04/07 15:32:43;;;;;;;3.13;2.43;;;13.50;78.50;;;;;;4993589;28;20508;-75
2023/04/07 15:35:11;;;;;;;2.70;2.00;;;13.40;78.30;;;;;;4993796;28;20469;-75
2023/04/07 15:37:37;;;;;;;3.60;2.50;;;13.40;79.00;;;;;;4993464;28;20551;-75
2023/04/07 15:40:05;;;;;;;2.50;1.70;;;13.50;78.30;;;;;;4993548;28;20539;-76
2023/04/07 15:42:34;;;;;;;3.80;1.90;;;13.50;76.90;;;;;;4993717;28;20445;-76
2023/04/07 15:45:01;;;;;;;4.07;2.10;;;13.50;74.80;;;;;;4993459;28;20567;-75
2023/04/07 15:47:27;;;;;;;3.47;2.27;;;13.60;75.40;;;;;;4993510;28;20440;-75
2023/04/07 15:49:54;;;;;;;3.00;1.80;;;13.70;76.30;;;;;;4993512;28;20457;-75
2023/04/07 15:52:22;;;;;;;3.60;2.43;;;13.70;75.80;;;;;;4993124;28;20877;-75
2023/04/07 15:54:50;;;;;;;3.43;2.10;;;13.70;74.70;;;;;;4993021;28;21009;-75
2023/04/07 15:57:16;;;;;;;4.20;2.37;;;13.70;75.10;;;;;;4993328;28;20535;-75
2023/04/07 15:59:43;;;;;;;3.30;2.37;;;13.70;74.60;;;;;;4994118;28;20460;-76
2023/04/07 16:02:10;;;;;;;2.93;2.33;;;13.70;75.80;;;;;;4993369;28;20453;-75
2023/04/07 16:04:36;;;;;;;2.57;1.60;;;13.70;75.00;;;;;;4996501;28;20445;-76
2023/04/07 16:07:03;;;;;;;2.57;2.00;;;13.70;75.10;;;;;;4996823;28;20453;-75
2023/04/07 16:09:32;;;;;;;4.40;2.20;;;13.70;75.30;;;;;;4996785;28;20461;-75
2023/04/07 16:11:59;;;;;;;4.20;2.53;;;13.70;74.90;;;;;;4996779;28;20456;-73
2023/04/07 16:14:27;;;;;;;3.33;2.43;;;13.70;75.00;;;;;;4996582;28;20475;-72
2023/04/07 16:16:57;;;;;;;4.20;2.30;;;13.70;74.40;;;;;;5024447;23;20504;-72
2023/04/07 16:19:24;;;;;;;3.33;2.03;;;13.70;74.90;;;;;;5002716;28;20445;-73
2023/04/07 16:21:50;;;;;;;3.57;2.50;;;13.80;74.50;;;;;;5000927;28;20790;-72
2023/04/07 16:24:17;;;;;;;2.87;2.40;;;13.80;75.50;;;;;;4998473;28;20449;-74
2023/04/07 16:26:49;;;;;;;3.63;2.23;;;13.90;76.50;;;;;;4997207;28;20539;-74
2023/04/07 16:29:15;;;;;;;3.87;2.10;;;13.90;75.50;;;;;;4997019;28;20532;-72
2023/04/07 16:31:43;;;;;;;5.40;2.43;;;13.90;75.00;;;;;;4997435;28;20483;-71
2023/04/07 16:34:09;;;;;;;3.17;2.37;;;13.90;75.10;;;;;;4997927;28;20449;-71
2023/04/07 16:36:36;;;;;;;3.20;2.23;;;13.90;75.90;;;;;;4998172;28;20472;-73
2023/04/07 16:39:03;;;;;;;3.60;2.30;;;13.90;76.30;;;;;;4995567;28;20452;-73
2023/04/07 16:41:30;;;;;;;3.10;2.50;;;13.80;76.60;;;;;;4996953;28;20203;-77
2023/04/07 16:43:58;;;;;;;2.83;2.00;;;13.60;76.90;;;;;;4996145;28;20500;-76
2023/04/07 16:46:27;;;;;;;3.27;2.10;;;13.70;76.90;;;;;;4995904;28;20979;-76
2023/04/07 16:48:53;;;;;;;2.90;2.47;;;13.60;76.50;;;;;;4996254;28;20456;-76
2023/04/07 16:51:20;;;;;;;3.43;2.27;;;13.40;77.10;;;;;;4996097;28;20453;-74
2023/04/07 16:53:47;;;;;;;3.47;2.40;;;13.20;78.10;;;;;;4995455;28;20456;-73